createdAt,value
2022-08-30T00:00:54.795Z,13.95
2022-08-30T00:05:59.837Z,13.88
2022-08-30T00:11:10.092Z,13.85
2022-08-30T00:16:16.213Z,13.95
2022-08-30T00:21:21.526Z,14.03
2022-08-30T00:26:29.097Z,14.13
2022-08-30T00:31:34.113Z,13.86
2022-08-30T00:36:39.222Z,13.87
2022-08-30T00:41:46.946Z,13.70
2022-08-30T00:46:51.924Z,13.58
2022-08-30T00:51:57.180Z,13.26
2022-08-30T00:57:05.253Z,13.31
2022-08-30T01:02:10.583Z,13.35
2022-08-30T01:07:17.023Z,13.63
2022-08-30T01:12:24.514Z,13.47
2022-08-30T01:17:30.169Z,13.33
2022-08-30T01:22:43.696Z,13.37
2022-08-30T01:28:01.689Z,13.40
2022-08-30T01:33:08.585Z,13.43
2022-08-30T01:38:15.339Z,13.34
2022-08-30T01:43:23.005Z,13.17
2022-08-30T01:48:31.173Z,13.23
2022-08-30T01:53:36.348Z,13.18
2022-08-30T01:58:44.580Z,13.33
2022-08-30T02:03:50.161Z,13.17
2022-08-30T02:08:55.404Z,13.36
2022-08-30T02:14:02.981Z,13.11
2022-08-30T02:19:08.027Z,13.09
2022-08-30T02:24:12.931Z,13.06
2022-08-30T02:29:20.612Z,13.30
2022-08-30T02:34:25.635Z,13.25
2022-08-30T02:39:30.855Z,13.26
2022-08-30T02:44:38.547Z,13.00
2022-08-30T02:49:43.683Z,13.05
2022-08-30T02:54:49.309Z,13.03
2022-08-30T02:59:56.980Z,13.08
2022-08-30T03:05:01.958Z,13.12
2022-08-30T03:10:07.390Z,13.12
2022-08-30T03:15:16.799Z,13.00
2022-08-30T03:20:22.723Z,13.07
2022-08-30T03:25:27.965Z,12.94
2022-08-30T03:30:36.741Z,12.90
2022-08-30T03:35:41.623Z,13.00
2022-08-30T03:40:47.194Z,13.03
2022-08-30T03:45:54.873Z,12.80
2022-08-30T03:51:00.482Z,12.58
2022-08-30T03:56:06.139Z,12.59
2022-08-30T04:01:13.912Z,12.51
2022-08-30T04:06:19.588Z,12.49
2022-08-30T04:11:24.571Z,12.47
2022-08-30T04:16:32.199Z,12.50
2022-08-30T04:21:42.802Z,12.05
2022-08-30T04:26:48.234Z,12.10
2022-08-30T04:31:55.814Z,12.28
2022-08-30T04:37:00.768Z,12.43
2022-08-30T04:42:07.194Z,12.85
2022-08-30T04:47:14.783Z,13.59
2022-08-30T04:52:19.750Z,14.65
2022-08-30T04:57:24.881Z,15.30
2022-08-30T05:02:32.971Z,17.00
2022-08-30T05:07:38.801Z,17.13
2022-08-30T05:12:46.097Z,19.00
2022-08-30T05:17:55.085Z,17.55
2022-08-30T05:23:00.601Z,18.15
2022-08-30T05:28:06.472Z,17.67
2022-08-30T05:33:14.070Z,16.98
2022-08-30T05:38:19.414Z,17.03
2022-08-30T05:43:26.886Z,17.04
2022-08-30T05:48:41.443Z,18.63
2022-08-30T05:53:48.023Z,18.68
2022-08-30T05:58:54.547Z,19.26
2022-08-30T06:04:05.926Z,20.09
2022-08-30T06:09:21.489Z,22.77
2022-08-30T06:14:29.553Z,23.39
2022-08-30T06:19:56.038Z,22.62
2022-08-30T06:25:01.711Z,23.77
2022-08-30T06:30:11.150Z,24.33
2022-08-30T06:35:19.653Z,25.40
2022-08-30T06:40:25.407Z,24.77
2022-08-30T06:45:34.876Z,25.43
2022-08-30T06:50:43.806Z,26.00
2022-08-30T06:55:49.384Z,27.10
2022-08-30T07:00:55.366Z,26.20
2022-08-30T07:06:06.231Z,25.42
2022-08-30T07:11:13.071Z,26.64
2022-08-30T07:16:19.754Z,28.96
2022-08-30T07:21:32.555Z,26.97
2022-08-30T07:26:43.535Z,26.43
2022-08-30T07:31:48.988Z,27.92
2022-08-30T07:36:59.293Z,28.07
2022-08-30T07:42:04.459Z,28.95
2022-08-30T07:47:10.157Z,27.40
2022-08-30T07:52:17.903Z,26.19
2022-08-30T07:57:26.174Z,27.36
2022-08-30T08:02:33.198Z,28.30
2022-08-30T08:07:40.991Z,26.60
2022-08-30T08:12:48.338Z,25.99
2022-08-30T08:17:53.353Z,25.83
2022-08-30T08:23:02.321Z,25.61
2022-08-30T08:28:07.748Z,25.04
2022-08-30T08:33:13.389Z,25.52
2022-08-30T08:38:24.371Z,26.33
2022-08-30T08:43:30.799Z,25.47
2022-08-30T08:48:59.478Z,27.64
2022-08-30T08:54:14.595Z,26.47
2022-08-30T08:59:21.897Z,28.11
2022-08-30T09:04:33.853Z,25.87
2022-08-30T09:09:43.876Z,25.02
2022-08-30T09:20:28.377Z,25.33
2022-08-30T09:25:52.609Z,25.56
2022-08-30T09:31:08.850Z,26.06
2022-08-30T09:36:24.547Z,24.45
2022-08-30T09:41:41.537Z,23.82
2022-08-30T09:46:53.513Z,23.59
2022-08-30T09:52:10.821Z,23.95
2022-08-30T09:57:34.005Z,25.40
2022-08-30T10:02:52.952Z,26.27
2022-08-30T10:08:07.165Z,25.47
2022-08-30T10:13:39.911Z,26.16
2022-08-30T10:18:57.260Z,25.96
2022-08-30T10:24:11.360Z,25.91
2022-08-30T10:29:28.852Z,26.29
2022-08-30T10:34:43.443Z,25.93
2022-08-30T10:39:53.217Z,24.79
2022-08-30T10:45:10.739Z,24.47
2022-08-30T10:50:21.836Z,25.34
2022-08-30T10:55:35.542Z,24.57
2022-08-30T11:00:56.164Z,23.99
2022-08-30T11:06:16.244Z,24.45
2022-08-30T11:11:42.700Z,24.80
2022-08-30T11:16:54.959Z,24.36
2022-08-30T11:22:16.798Z,25.59
2022-08-30T11:27:45.047Z,25.25
2022-08-30T11:33:30.138Z,24.84
2022-08-30T11:39:13.411Z,24.48
2022-08-30T11:44:35.710Z,23.58
2022-08-30T11:50:01.173Z,23.66
2022-08-30T11:55:30.108Z,24.10
2022-08-30T12:00:40.811Z,24.86
2022-08-30T12:06:04.737Z,24.92
2022-08-30T12:11:31.562Z,24.52
2022-08-30T12:16:58.943Z,24.31
2022-08-30T12:22:07.325Z,23.80
2022-08-30T12:27:27.417Z,23.85
2022-08-30T12:32:47.661Z,23.58
2022-08-30T12:38:02.447Z,22.83
2022-08-30T12:43:21.071Z,22.76
2022-08-30T12:48:29.942Z,22.71
2022-08-30T12:53:41.849Z,22.71
2022-08-30T12:58:50.888Z,22.72
2022-08-30T13:04:06.587Z,23.06
2022-08-30T13:09:12.161Z,22.82
2022-08-30T13:14:34.900Z,23.89
2022-08-30T13:19:45.164Z,23.37
2022-08-30T13:24:51.161Z,23.76
2022-08-30T13:29:58.171Z,23.68
2022-08-30T13:35:07.849Z,23.38
2022-08-30T13:40:18.613Z,23.37
2022-08-30T13:45:41.446Z,23.43
2022-08-30T13:50:51.339Z,23.04
2022-08-30T13:55:56.630Z,23.61
2022-08-30T14:01:02.405Z,23.57
2022-08-30T14:06:32.383Z,23.05
2022-08-30T14:11:37.698Z,24.30
2022-08-30T14:16:44.788Z,24.00
2022-08-30T14:21:52.407Z,24.29
2022-08-30T14:26:57.227Z,24.24
2022-08-30T14:32:02.349Z,23.66
2022-08-30T14:37:09.931Z,23.97
2022-08-30T14:42:18.961Z,23.69
2022-08-30T14:47:29.421Z,23.89
2022-08-30T14:52:37.892Z,23.10
2022-08-30T14:57:43.344Z,23.32
2022-08-30T15:02:49.492Z,24.37
2022-08-30T15:07:57.204Z,23.42
2022-08-30T15:13:04.768Z,23.28
2022-08-30T15:18:10.023Z,23.36
2022-08-30T15:23:22.848Z,23.00
2022-08-30T15:28:30.241Z,22.96
2022-08-30T15:33:35.316Z,23.26
2022-08-30T15:38:46.636Z,23.29
2022-08-30T15:43:54.236Z,22.78
2022-08-30T15:49:03.527Z,22.99
2022-08-30T15:54:13.049Z,22.91
2022-08-30T15:59:19.395Z,23.09
2022-08-30T16:04:24.974Z,23.06
2022-08-30T16:09:33.433Z,22.75
2022-08-30T16:14:38.439Z,22.46
2022-08-30T16:19:43.376Z,22.60
2022-08-30T16:24:50.919Z,22.55
2022-08-30T16:29:56.036Z,22.65
2022-08-30T16:35:00.881Z,22.47
2022-08-30T16:40:09.876Z,22.36
2022-08-30T16:45:16.030Z,22.37
2022-08-30T16:50:23.379Z,22.39
2022-08-30T16:55:31.221Z,22.46
2022-08-30T17:00:37.094Z,22.09
2022-08-30T17:05:44.862Z,21.92
2022-08-30T17:10:54.701Z,21.85
2022-08-30T17:16:02.880Z,21.97
2022-08-30T17:21:09.230Z,21.95
2022-08-30T17:26:17.219Z,21.79
2022-08-30T17:31:22.322Z,21.66
2022-08-30T17:36:28.666Z,21.60
2022-08-30T17:41:36.176Z,21.58
2022-08-30T17:46:41.728Z,21.46
2022-08-30T17:51:47.642Z,21.37
2022-08-30T17:56:55.853Z,21.00
2022-08-30T18:02:00.895Z,20.93
2022-08-30T18:07:06.464Z,20.87
2022-08-30T18:12:14.967Z,20.81
2022-08-30T18:17:20.236Z,20.64
2022-08-30T18:22:25.193Z,20.30
2022-08-30T18:27:32.848Z,20.16
2022-08-30T18:32:44.140Z,20.11
2022-08-30T18:37:49.247Z,19.99
2022-08-30T18:42:56.874Z,19.93
2022-08-30T18:48:02.000Z,19.80
2022-08-30T18:53:08.883Z,19.78
2022-08-30T18:58:20.403Z,19.63
2022-08-30T19:03:27.858Z,19.45
2022-08-30T19:08:39.130Z,19.44
2022-08-30T19:13:46.987Z,19.18
2022-08-30T19:18:51.927Z,19.12
2022-08-30T19:23:56.926Z,18.99
2022-08-30T19:29:05.505Z,19.02
2022-08-30T19:34:10.645Z,18.95
2022-08-30T19:39:15.652Z,18.94
2022-08-30T19:44:25.066Z,19.10
2022-08-30T19:49:29.998Z,18.97
2022-08-30T19:54:36.709Z,18.96
2022-08-30T19:59:46.653Z,18.87
2022-08-30T20:04:52.270Z,18.83
2022-08-30T20:09:57.276Z,18.78
2022-08-30T20:15:09.524Z,18.65
2022-08-30T20:20:25.103Z,18.44
2022-08-30T20:25:31.015Z,18.45
2022-08-30T20:30:39.416Z,18.24
2022-08-30T20:35:49.089Z,18.40
2022-08-30T20:40:57.775Z,18.26
2022-08-30T20:46:10.121Z,18.25
2022-08-30T20:51:18.176Z,18.22
2022-08-30T20:56:25.758Z,18.17
2022-08-30T21:01:33.624Z,18.13
2022-08-30T21:06:38.854Z,18.10
2022-08-30T21:11:44.842Z,18.09
2022-08-30T21:16:52.820Z,18.06
2022-08-30T21:21:57.882Z,18.04
2022-08-30T21:27:02.907Z,18.08
2022-08-30T21:32:10.556Z,17.77
2022-08-30T21:37:15.574Z,18.00
2022-08-30T21:42:20.829Z,17.83
2022-08-30T21:47:28.332Z,17.74
2022-08-30T21:52:33.782Z,17.76
2022-08-30T21:57:38.802Z,17.80
2022-08-30T22:02:46.356Z,17.55
2022-08-30T22:07:54.607Z,17.50
2022-08-30T22:12:59.581Z,17.52
2022-08-30T22:18:07.776Z,17.48
2022-08-30T22:23:15.779Z,17.49
2022-08-30T22:28:24.880Z,17.47
2022-08-30T22:33:33.207Z,17.37
2022-08-30T22:38:39.143Z,17.22
2022-08-30T22:43:44.393Z,17.21
2022-08-30T22:48:52.866Z,17.10
2022-08-30T22:53:57.957Z,17.12
2022-08-30T22:59:03.279Z,17.17
2022-08-30T23:04:11.840Z,17.11
2022-08-30T23:09:16.779Z,16.95
2022-08-30T23:14:21.771Z,16.89
2022-08-30T23:19:29.832Z,16.40
2022-08-30T23:24:48.986Z,16.67
2022-08-30T23:30:06.692Z,16.68
2022-08-30T23:35:29.320Z,16.84
2022-08-30T23:40:46.980Z,16.65
2022-08-30T23:46:04.392Z,16.62
2022-08-30T23:51:24.653Z,16.53
2022-08-30T23:56:41.996Z,16.65
